地図

経路データ

SID SEASON NUMBER BASIN SUBBASIN NAME ISO_TIME NATURE LAT LON WMO_WIND WMO_PRES WMO_AGENCY TRACK_TYPE DIST2LAND LANDFALL IFLAG USA_AGENCY USA_ATCF_ID USA_LAT USA_LON USA_RECORD USA_STATUS USA_WIND USA_PRES USA_SSHS USA_R34_NE USA_R34_SE USA_R34_SW USA_R34_NW USA_R50_NE USA_R50_SE USA_R50_SW USA_R50_NW USA_R64_NE USA_R64_SE USA_R64_SW USA_R64_NW USA_POCI USA_ROCI USA_RMW USA_EYE TOKYO_LAT TOKYO_LON TOKYO_GRADE TOKYO_WIND TOKYO_PRES TOKYO_R50_DIR TOKYO_R50_LONG TOKYO_R50_SHORT TOKYO_R30_DIR TOKYO_R30_LONG TOKYO_R30_SHORT TOKYO_LAND CMA_LAT CMA_LON CMA_CAT CMA_WIND CMA_PRES HKO_LAT HKO_LON HKO_CAT HKO_WIND HKO_PRES NEWDELHI_LAT NEWDELHI_LON NEWDELHI_GRADE NEWDELHI_WIND NEWDELHI_PRES NEWDELHI_CI NEWDELHI_DP NEWDELHI_POCI REUNION_LAT REUNION_LON REUNION_TYPE REUNION_WIND REUNION_PRES REUNION_TNUM REUNION_CI REUNION_RMW REUNION_R34_NE REUNION_R34_SE REUNION_R34_SW REUNION_R34_NW REUNION_R50_NE REUNION_R50_SE REUNION_R50_SW REUNION_R50_NW REUNION_R64_NE REUNION_R64_SE REUNION_R64_SW REUNION_R64_NW BOM_LAT BOM_LON BOM_TYPE BOM_WIND BOM_PRES BOM_TNUM BOM_CI BOM_RMW BOM_R34_NE BOM_R34_SE BOM_R34_SW BOM_R34_NW BOM_R50_NE BOM_R50_SE BOM_R50_SW BOM_R50_NW BOM_R64_NE BOM_R64_SE BOM_R64_SW BOM_R64_NW BOM_ROCI BOM_POCI BOM_EYE BOM_POS_METHOD BOM_PRES_METHOD NADI_LAT NADI_LON NADI_CAT NADI_WIND NADI_PRES WELLINGTON_LAT WELLINGTON_LON WELLINGTON_WIND WELLINGTON_PRES DS824_LAT DS824_LON DS824_STAGE DS824_WIND DS824_PRES TD9636_LAT TD9636_LON TD9636_STAGE TD9636_WIND TD9636_PRES TD9635_LAT TD9635_LON TD9635_WIND TD9635_PRES TD9635_ROCI NEUMANN_LAT NEUMANN_LON NEUMANN_CLASS NEUMANN_WIND NEUMANN_PRES MLC_LAT MLC_LON MLC_CLASS MLC_WIND MLC_PRES USA_GUST BOM_GUST BOM_GUST_PER REUNION_GUST REUNION_GUST_PER USA_SEAHGT USA_SEARAD_NE USA_SEARAD_SE USA_SEARAD_SW USA_SEARAD_NW STORM_SPEED STORM_DIR
1863248N11308 1863 20 NA NA NOT_NAMED 1863-09-05 00:00:00 TS 10.5000 -52.5000 main 548 548 _____________O -1 10.5000 -52.5000 TD 30 10 306
1863248N11308 1863 20 NA NA NOT_NAMED 1863-09-05 03:00:00 TS 10.8001 -52.9123 main 567 564 _____________P -1 10.8001 -52.9123 TD 30 10 307
1863248N11308 1863 20 NA NA NOT_NAMED 1863-09-05 06:00:00 TS 11.1000 -53.3000 main 590 589 _____________O -1 11.1000 -53.3000 TD 30 9 310
1863248N11308 1863 20 NA NA NOT_NAMED 1863-09-05 09:00:00 TS 11.3999 -53.6501 main 618 618 _____________P -1 11.3999 -53.6501 TD 30 9 311
1863248N11308 1863 20 NA NA NOT_NAMED 1863-09-05 12:00:00 TS 11.7000 -54.0000 main 650 650 _____________O -1 11.7000 -54.0000 TD 30 10 310
1863248N11308 1863 20 NA NA NOT_NAMED 1863-09-05 15:00:00 TS 12.0075 -54.4000 main 674 665 _____________P -1 12.0075 -54.4000 TD 30 10 307
1863248N11308 1863 20 NA NA NOT_NAMED 1863-09-05 18:00:00 TS 12.3000 -54.8000 main 665 658 _____________O -1 12.3000 -54.8000 TD 30 9 306
1863248N11308 1863 20 NA NA NOT_NAMED 1863-09-05 21:00:00 TS 12.5500 -55.1651 main 653 643 _____________P -1 12.5500 -55.1651 TD 30 8 306
1863248N11308 1863 20 NA NA NOT_NAMED 1863-09-06 00:00:00 TS 12.8000 -55.5000 main 643 622 _____________O -1 12.8000 -55.5000 TD 30 8 311
1863248N11308 1863 20 NA NA NOT_NAMED 1863-09-06 03:00:00 TS 13.0924 -55.8076 main 626 607 _____________P -1 13.0924 -55.8076 TD 30 8 316
1863248N11308 1863 20 NA NA NOT_NAMED 1863-09-06 06:00:00 TS 13.4000 -56.1000 main 612 602 _____________O -1 13.4000 -56.1000 TD 30 8 317
1863248N11308 1863 20 NA NA NOT_NAMED 1863-09-06 09:00:00 TS 13.7000 -56.4001 main 602 595 _____________P -1 13.7000 -56.4001 TD 32 8 316
1863248N11308 1863 20 NA NA NOT_NAMED 1863-09-06 12:00:00 TS 14.0000 -56.7000 main 595 585 _____________O -1 14.0000 -56.7000 TS 35 8 316
1863248N11308 1863 20 NA NA NOT_NAMED 1863-09-06 15:00:00 TS 14.3000 -57.0075 main 592 592 _____________P -1 14.3000 -57.0075 TS 35 8 316
1863248N11308 1863 20 NA NA NOT_NAMED 1863-09-06 18:00:00 TS 14.6000 -57.3000 main 593 593 _____________O -1 14.6000 -57.3000 TS 35 8 318
1863248N11308 1863 20 NA NA NOT_NAMED 1863-09-06 21:00:00 TS 14.8849 -57.5427 main 604 597 _____________P -1 14.8849 -57.5427 TS 35 8 321
1863248N11308 1863 20 NA NA NOT_NAMED 1863-09-07 00:00:00 TS 15.2000 -57.8000 main 611 611 _____________O -1 15.2000 -57.8000 TS 35 9 321
1863248N11308 1863 20 NA NA NOT_NAMED 1863-09-07 03:00:00 TS 15.5925 -58.1424 main 632 626 _____________P -1 15.5925 -58.1424 TS 35 11 320
1863248N11308 1863 20 NA NA NOT_NAMED 1863-09-07 06:00:00 TS 16.0000 -58.5000 main 652 652 _____________O -1 16.0000 -58.5000 TS 35 10 320
1863248N11308 1863 20 NA NA NOT_NAMED 1863-09-07 09:00:00 TS 16.3574 -58.8077 main 681 677 _____________P -1 16.3574 -58.8077 TS 35 9 321
1863248N11308 1863 20 NA NA NOT_NAMED 1863-09-07 12:00:00 TS 16.7000 -59.1000 main 702 670 _____________O -1 16.7000 -59.1000 TS 35 9 321
1863248N11308 1863 20 NA NA NOT_NAMED 1863-09-07 15:00:00 TS 17.0500 -59.4001 main 670 631 _____________P -1 17.0500 -59.4001 TS 35 9 321
1863248N11308 1863 20 NA NA NOT_NAMED 1863-09-07 18:00:00 TS 17.4000 -59.7000 main 631 595 _____________O -1 17.4000 -59.7000 TS 35 9 319
1863248N11308 1863 20 NA NA NOT_NAMED 1863-09-07 21:00:00 TS 17.7350 -60.0151 main 595 560 _____________P -1 17.7350 -60.0151 TS 37 9 321
1863248N11308 1863 20 NA NA NOT_NAMED 1863-09-08 00:00:00 TS 18.1000 -60.3000 main 560 538 _____________O -1 18.1000 -60.3000 TS 40 9 330
1863248N11308 1863 20 NA NA NOT_NAMED 1863-09-08 03:00:00 TS 18.5349 -60.5077 main 538 519 _____________P -1 18.5349 -60.5077 TS 42 10 337
1863248N11308 1863 20 NA NA NOT_NAMED 1863-09-08 06:00:00 TS 19.0000 -60.7000 main 520 504 _____________O -1 19.0000 -60.7000 TS 45 10 335
1863248N11308 1863 20 NA NA NOT_NAMED 1863-09-08 09:00:00 TS 19.4500 -60.9500 main 499 488 _____________P -1 19.4500 -60.9500 TS 47 10 332
1863248N11308 1863 20 NA NA NOT_NAMED 1863-09-08 12:00:00 TS 19.9000 -61.2000 main 491 484 _____________O -1 19.9000 -61.2000 TS 50 10 335
1863248N11308 1863 20 NA NA NOT_NAMED 1863-09-08 15:00:00 TS 20.3499 -61.4002 main 489 489 _____________P -1 20.3499 -61.4002 TS 52 10 337
1863248N11308 1863 20 NA NA NOT_NAMED 1863-09-08 18:00:00 TS 20.8000 -61.6000 main 497 494 _____________O -1 20.8000 -61.6000 TS 55 10 335
1863248N11308 1863 20 NA NA NOT_NAMED 1863-09-08 21:00:00 TS 21.2575 -61.8500 main 512 497 _____________P -1 21.2575 -61.8500 TS 55 2 143
1863248N11308 1863 20 NA NA NOT_NAMED 1863-09-09 00:00:00 TS 20.6333 -61.4667 60 hurdat_atl main 495 489 O____________O hurdat_atl AL051863 18.5000 -60.2000 TS 60 0 21.7000 -62.1000 TS 55 9 158
1863248N11308 1863 20 NA NA NOT_NAMED 1863-09-09 03:00:00 TS 20.4626 -61.5075 main 489 471 P____________P AL051863 18.8253 -60.7147 TS 60 0 22.0999 -62.3003 TS 57 3 244
1863248N11308 1863 20 NA NA NOT_NAMED 1863-09-09 06:00:00 TS 20.5200 -61.7200 60 hurdat_atl main 471 456 O____________O hurdat_atl AL051863 19.2000 -61.2000 TS 60 0 22.5000 -62.5000 TS 60 6 302
1863248N11308 1863 20 NA NA NOT_NAMED 1863-09-09 09:00:00 TS 20.7558 -62.0034 main 462 454 P____________P AL051863 19.6624 -61.6301 TS 65 1 22.9425 -62.7500 TS 60 9 322
1863248N11308 1863 20 NA NA NOT_NAMED 1863-09-09 12:00:00 TS 21.2667 -62.3333 70 hurdat_atl main 473 466 O____________O hurdat_atl AL051863 20.2000 -62.0000 HU 70 1 23.4000 -63.0000 TS 60 12 332
1863248N11308 1863 20 NA NA NOT_NAMED 1863-09-09 15:00:00 TS 21.8065 -62.6103 main 492 492 P____________P AL051863 20.7849 -62.3153 HU 70 1 23.8499 -63.2003 TS 62 12 336
1863248N11308 1863 20 NA NA NOT_NAMED 1863-09-09 18:00:00 TS 22.3667 -62.8667 70 hurdat_atl main 528 528 O____________O hurdat_atl AL051863 21.4000 -62.6000 HU 70 1 24.3000 -63.4000 HU 65 12 336
1863248N11308 1863 20 NA NA NOT_NAMED 1863-09-09 21:00:00 TS 22.9142 -63.1551 main 561 561 P____________P AL051863 21.9925 -62.9077 HU 70 1 24.7575 -63.6500 HU 67 12 335
1863248N11308 1863 20 NA NA NOT_NAMED 1863-09-10 00:00:00 TS 23.4667 -63.4333 70 hurdat_atl main 614 610 O____________O hurdat_atl AL051863 22.6000 -63.2000 HU 70 1 25.2000 -63.9000 HU 70 12 336
1863248N11308 1863 20 NA NA NOT_NAMED 1863-09-10 03:00:00 TS 24.0333 -63.6942 main 656 656 P____________P AL051863 23.2500 -63.4725 HU 70 1 25.6000 -64.1375 HU 70 12 339
1863248N11308 1863 20 NA NA NOT_NAMED 1863-09-10 06:00:00 TS 24.6000 -63.9000 70 hurdat_atl main 715 715 O____________O hurdat_atl AL051863 23.9000 -63.7000 HU 70 1 26.0000 -64.3000 HU 70 12 345
1863248N11308 1863 20 NA NA NOT_NAMED 1863-09-10 09:00:00 TS 25.1475 -64.0302 main 767 767 P____________P AL051863 24.5000 -63.8802 HU 70 1 26.4425 -64.3303 HU 72 11 351
1863248N11308 1863 20 NA NA NOT_NAMED 1863-09-10 12:00:00 TS 25.7000 -64.1000 70 hurdat_atl main 830 830 O____________O hurdat_atl AL051863 25.1000 -64.0000 HU 70 1 26.9000 -64.3000 HU 75 11 354
1863248N11308 1863 20 NA NA NOT_NAMED 1863-09-10 15:00:00 TS 26.2758 -64.1534 main 894 894 P____________P AL051863 25.7350 -64.0726 HU 70 1 27.3575 -64.3148 HU 75 12 357
1863248N11308 1863 20 NA NA NOT_NAMED 1863-09-10 18:00:00 TS 26.8667 -64.1667 70 hurdat_atl main 960 960 O____________O hurdat_atl AL051863 26.4000 -64.1000 HU 70 1 27.8000 -64.3000 HU 75 12 1
1863248N11308 1863 20 NA NA NOT_NAMED 1863-09-10 21:00:00 TS 27.4567 -64.1532 main 1027 1027 P____________P AL051863 27.0850 -64.1223 HU 70 1 28.2000 -64.2151 HU 77 12 3
1863248N11308 1863 20 NA NA NOT_NAMED 1863-09-11 00:00:00 TS 28.0667 -64.1000 70 hurdat_atl main 1094 1094 O____________O hurdat_atl AL051863 27.8000 -64.1000 HU 70 1 28.6000 -64.1000 HU 80 13 6
1863248N11308 1863 20 NA NA NOT_NAMED 1863-09-11 03:00:00 TS 28.7192 -64.0028 main 1162 1162 P____________P AL051863 28.5575 -64.0079 HU 70 1 29.0425 -63.9925 HU 80 13 8
1863248N11308 1863 20 NA NA NOT_NAMED 1863-09-11 06:00:00 TS 29.3667 -63.9000 70 hurdat_atl main 1241 1241 O____________O hurdat_atl AL051863 29.3000 -63.9000 HU 70 1 29.5000 -63.9000 HU 80 13 6
1863248N11308 1863 20 NA NA NOT_NAMED 1863-09-11 09:00:00 TS 29.9750 -63.8521 main 1258 1236 P____________P AL051863 29.9874 -63.8570 HU 70 1 29.9500 -63.8424 HU 82 12 5
1863248N11308 1863 20 NA NA NOT_NAMED 1863-09-11 12:00:00 TS 30.5333 -63.8000 70 hurdat_atl main 1236 1216 O____________O hurdat_atl AL051863 30.6000 -63.8000 HU 70 1 30.4000 -63.8000 HU 85 11 7
1863248N11308 1863 20 NA NA NOT_NAMED 1863-09-11 15:00:00 TS 31.0267 -63.6982 main 1216 1198 P____________P AL051863 31.1150 -63.6724 HU 70 1 30.8500 -63.7500 HU 85 10 12
1863248N11308 1863 20 NA NA NOT_NAMED 1863-09-11 18:00:00 TS 31.5000 -63.5667 70 hurdat_atl main 1198 1187 O____________O hurdat_atl AL051863 31.6000 -63.5000 HU 70 1 31.3000 -63.7000 HU 85 10 13
1863248N11308 1863 20 NA NA NOT_NAMED 1863-09-11 21:00:00 TS 32.0191 -63.4266 main 1191 1177 P____________P AL051863 32.1500 -63.3149 HU 70 1 31.7575 -63.6500 HU 85 11 14
1863248N11308 1863 20 NA NA NOT_NAMED 1863-09-12 00:00:00 TS 32.5333 -63.2667 70 hurdat_atl main 1178 1143 O____________O hurdat_atl AL051863 32.7000 -63.1000 HU 70 1 32.2000 -63.6000 HU 85 10 16
1863248N11308 1863 20 NA NA NOT_NAMED 1863-09-12 03:00:00 TS 32.9900 -63.0956 main 1143 1114 P____________P AL051863 33.2224 -62.8648 HU 70 1 32.5250 -63.5571 HU 85 10 18
1863248N11308 1863 20 NA NA NOT_NAMED 1863-09-12 06:00:00 TS 33.4667 -62.9000 70 hurdat_atl main 1105 1068 O____________O hurdat_atl AL051863 33.7000 -62.6000 HU 70 1 33.0000 -63.5000 HU 85 11 18
1863248N11308 1863 20 NA NA NOT_NAMED 1863-09-12 09:00:00 TS 34.0374 -62.6861 main 1068 1019 P____________P AL051863 34.1000 -62.2996 HU 70 1 33.9123 -63.4589 HU 85 12 18
1863248N11308 1863 20 NA NA NOT_NAMED 1863-09-12 12:00:00 TS 34.6333 -62.4333 70 hurdat_atl main 1021 961 O____________O hurdat_atl AL051863 34.5000 -62.0000 HU 70 1 34.9000 -63.3000 HU 85 13 21
1863248N11308 1863 20 NA NA NOT_NAMED 1863-09-12 15:00:00 TS 35.2159 -62.1244 main 963 915 P____________P AL051863 35.0224 -61.7352 HU 70 1 35.6027 -62.9028 HU 85 12 25
1863248N11308 1863 20 NA NA NOT_NAMED 1863-09-12 18:00:00 TS 35.7333 -61.8000 70 hurdat_atl main 917 881 O____________O hurdat_atl AL051863 35.5000 -61.5000 HU 70 1 36.2000 -62.4000 HU 85 10 29
1863248N11308 1863 20 NA NA NOT_NAMED 1863-09-12 21:00:00 TS 36.1123 -61.5208 main 884 859 P____________P AL051863 35.7648 -61.3066 HU 70 1 36.8073 -61.9492 HU 85 9 32
1863248N11308 1863 20 NA NA NOT_NAMED 1863-09-13 00:00:00 TS 36.4667 -61.2333 70 hurdat_atl main 853 823 O____________O hurdat_atl AL051863 36.0000 -61.1000 HU 70 1 37.4000 -61.5000 HU 85 10 32
1863248N11308 1863 20 NA NA NOT_NAMED 1863-09-13 03:00:00 TS 36.9232 -60.9006 main 823 785 P____________P AL051863 36.3850 -60.8226 HU 70 1 37.9997 -61.0566 HU 85 11 31
1863248N11308 1863 20 NA NA NOT_NAMED 1863-09-13 06:00:00 TS 37.4000 -60.5333 70 hurdat_atl main 790 765 O____________O hurdat_atl AL051863 36.8000 -60.5000 HU 70 1 38.6000 -60.6000 HU 85 11 32
1863248N11308 1863 20 NA NA NOT_NAMED 1863-09-13 09:00:00 TS 37.8429 -60.1726 main 765 743 P____________P AL051863 37.1346 -60.1937 HU 70 1 39.2595 -60.1303 HU 82 11 36
1863248N11308 1863 20 NA NA NOT_NAMED 1863-09-13 12:00:00 TS 38.2667 -59.7333 70 hurdat_atl main 744 730 O____________O hurdat_atl AL051863 37.5000 -59.8000 HU 70 1 39.8000 -59.6000 HU 80 12 44
1863248N11308 1863 20 NA NA NOT_NAMED 1863-09-13 15:00:00 TS 38.6765 -59.1637 main 730 717 P____________P AL051863 37.9848 -59.2600 HU 70 1 40.0600 -58.9709 HU 80 13 50
1863248N11308 1863 20 NA NA NOT_NAMED 1863-09-13 18:00:00 TS 39.0667 -58.5000 70 hurdat_atl main 711 693 O____________O hurdat_atl AL051863 38.5000 -58.6000 HU 70 1 40.2000 -58.3000 HU 80 13 54
1863248N11308 1863 20 NA NA NOT_NAMED 1863-09-13 21:00:00 TS 39.4408 -57.7929 main 699 683 P____________P AL051863 38.9651 -57.8646 HU 70 1 40.3921 -57.6494 HU 80 13 56
1863248N11308 1863 20 NA NA NOT_NAMED 1863-09-14 00:00:00 TS 39.8000 -57.0667 70 hurdat_atl main 683 676 O____________O hurdat_atl AL051863 39.4000 -57.1000 HU 70 1 40.6000 -57.0000 HU 80 13 57
1863248N11308 1863 20 NA NA NOT_NAMED 1863-09-14 03:00:00 TS 40.1444 -56.3845 main 684 674 P____________P AL051863 39.7917 -56.4055 HU 70 1 40.8498 -56.3425 HU 77 13 56
1863248N11308 1863 20 NA NA NOT_NAMED 1863-09-14 06:00:00 TS 40.5000 -55.7000 70 hurdat_atl main 681 655 O____________O hurdat_atl AL051863 40.2000 -55.7000 HU 70 1 41.1000 -55.7000 HU 75 13 55
1863248N11308 1863 20 NA NA NOT_NAMED 1863-09-14 09:00:00 TS 40.8587 -55.0190 main 643 591 P____________P AL051863 40.6616 -54.9429 HU 70 1 41.2529 -55.1711 HU 75 14 54
1863248N11308 1863 20 NA NA NOT_NAMED 1863-09-14 12:00:00 TS 41.3000 -54.2333 70 hurdat_atl main 591 522 O____________O hurdat_atl AL051863 41.2000 -54.1000 HU 70 1 41.5000 -54.5000 HU 75 17 52
1863248N11308 1863 20 NA NA NOT_NAMED 1863-09-14 15:00:00 TS 41.8864 -53.2507 main 522 461 P____________P AL051863 41.8266 -53.1587 HU 70 1 42.0060 -53.4348 HU 72 20 52
1863248N11308 1863 20 NA NA NOT_NAMED 1863-09-14 18:00:00 TS 42.5333 -52.1333 70 hurdat_atl main 463 422 O____________O hurdat_atl AL051863 42.5000 -52.1000 HU 70 1 42.6000 -52.2000 HU 70 21 53
1863248N11308 1863 20 NA NA NOT_NAMED 1863-09-14 21:00:00 TS 43.1427 -50.9686 main 425 412 P____________P AL051863 43.1646 -50.9293 HU 65 1 43.0988 -51.0473 HU 70 21 55
1863248N11308 1863 20 NA NA NOT_NAMED 1863-09-15 00:00:00 TS 43.7333 -49.7667 60 hurdat_atl main 417 413 O____________O hurdat_atl AL051863 43.8000 -49.7000 TS 60 0 43.6000 -49.9000 HU 70 21 56
1863248N11308 1863 20 NA NA NOT_NAMED 1863-09-15 03:00:00 TS 44.2922 -48.5760 main 439 439 P____________P AL051863 44.3639 -48.4896 TS 60 0 44.1488 -48.7487 HU 67 20 57
1863248N11308 1863 20 NA NA NOT_NAMED 1863-09-15 06:00:00 TS 44.8333 -47.4000 60 hurdat_atl main 485 485 O____________O hurdat_atl AL051863 44.9000 -47.3000 TS 60 0 44.7000 -47.6000 HU 65 20 57
1863248N11308 1863 20 NA NA NOT_NAMED 1863-09-15 09:00:00 TS 45.3758 -46.2260 main 540 540 P____________P AL051863 45.4646 -46.1045 TS 60 0 45.1982 -46.4689 HU 65 19 57
1863248N11308 1863 20 NA NA NOT_NAMED 1863-09-15 12:00:00 TS 45.9000 -45.1000 60 hurdat_atl main 596 596 O____________O hurdat_atl AL051863 46.0000 -45.0000 TS 60 0 45.7000 -45.3000 HU 65 18 56
1863248N11308 1863 20 NA NA NOT_NAMED 1863-09-15 15:00:00 TS 46.3865 -44.0635 main 653 653 P____________P AL051863 46.4551 -44.0881 TS 60 0 46.2495 -44.0143 HU 62 17 55
1863248N11308 1863 20 NA NA NOT_NAMED 1863-09-15 18:00:00 TS 46.8727 -43.0636 60 hurdat_atl main 717 717 O____________O hurdat_atl AL051863 46.9000 -43.2000 TS 60 0 46.8000 -42.7000 TS 60 17 55
1863248N11308 1863 20 NA NA NOT_NAMED 1863-09-15 21:00:00 TS 47.3769 -41.9847 main 793 793 P____________P AL051863 47.3925 -42.1218 TS 55 0 47.3145 -41.4360 TS 55 18 55
1863248N11308 1863 20 NA NA NOT_NAMED 1863-09-16 00:00:00 TS 47.8889 -40.9111 50 hurdat_atl main 872 872 O____________O hurdat_atl AL051863 47.9000 -41.0000 TS 50 0 47.8000 -40.2000 TS 50 17 53
1863248N11308 1863 20 NA NA NOT_NAMED 1863-09-16 03:00:00 TS 48.3913 -39.9398 main 945 945 P_____________ AL051863 48.3913 -39.9398 TS 50 0 TS 17 53
1863248N11308 1863 20 NA NA NOT_NAMED 1863-09-16 06:00:00 TS 48.9000 -38.9000 50 hurdat_atl main 1021 1021 O_____________ hurdat_atl AL051863 48.9000 -38.9000 TS 50 0 17 52
1863248N11308 1863 20 NA NA NOT_NAMED 1863-09-16 09:00:00 TS 49.4482 -37.8776 main 1095 1095 P_____________ AL051863 49.4482 -37.8776 TS 50 0 17 51
1863248N11308 1863 20 NA NA NOT_NAMED 1863-09-16 12:00:00 TS 50.0000 -36.8000 50 hurdat_atl main 1177 1159 O_____________ hurdat_atl AL051863 50.0000 -36.8000 TS 50 0 18 54
1863248N11308 1863 20 NA NA NOT_NAMED 1863-09-16 15:00:00 TS 50.5159 -35.5955 main 1162 1143 P_____________ AL051863 50.5159 -35.5955 TS 50 0 19 58
1863248N11308 1863 20 NA NA NOT_NAMED 1863-09-16 18:00:00 TS 51.0000 -34.3000 50 hurdat_atl main 1146 O_____________ hurdat_atl AL051863 51.0000 -34.3000 TS 50 0 19 59

IBTrACS Databaseについて

本データベースは、米国NOAAが公開する1842年以降の世界の熱帯低気圧のベストトラックデータアーカイブInternational Best Track Archive for Climate Stewardship (IBTrACS)を、ウェブで閲覧しやすい形式に変換したものです。

最終更新日:2021-11-26